sensor_id;sensor_type;location;lat;lon;timestamp;temperature;humidity
32293;DHT22;43233;48.608;8.838;2024-01-11T00:00:30;-3.10;49.80
32293;DHT22;43233;48.608;8.838;2024-01-11T00:02:56;-3.10;50.00
32293;DHT22;43233;48.608;8.838;2024-01-11T00:05:21;-3.10;51.40
32293;DHT22;43233;48.608;8.838;2024-01-11T00:07:48;-3.10;50.30
32293;DHT22;43233;48.608;8.838;2024-01-11T00:10:14;-3.10;50.00
32293;DHT22;43233;48.608;8.838;2024-01-11T00:12:39;-3.10;49.80
32293;DHT22;43233;48.608;8.838;2024-01-11T00:15:06;-3.20;49.80
32293;DHT22;43233;48.608;8.838;2024-01-11T00:17:31;-3.30;50.10
32293;DHT22;43233;48.608;8.838;2024-01-11T00:19:57;-3.30;50.40
32293;DHT22;43233;48.608;8.838;2024-01-11T00:22:22;-3.30;50.60
32293;DHT22;43233;48.608;8.838;2024-01-11T00:24:48;-3.30;51.00
32293;DHT22;43233;48.608;8.838;2024-01-11T00:27:14;-3.30;51.00
32293;DHT22;43233;48.608;8.838;2024-01-11T00:29:39;-3.30;51.20
32293;DHT22;43233;48.608;8.838;2024-01-11T00:32:05;-3.30;51.30
32293;DHT22;43233;48.608;8.838;2024-01-11T00:34:31;-3.30;51.20
32293;DHT22;43233;48.608;8.838;2024-01-11T00:36:57;-3.30;51.10
32293;DHT22;43233;48.608;8.838;2024-01-11T00:39:22;-3.40;51.00
32293;DHT22;43233;48.608;8.838;2024-01-11T00:41:48;-3.40;51.90
32293;DHT22;43233;48.608;8.838;2024-01-11T00:44:14;-3.40;51.40
32293;DHT22;43233;48.608;8.838;2024-01-11T00:46:40;-3.50;51.60
32293;DHT22;43233;48.608;8.838;2024-01-11T00:49:06;-3.50;51.50
32293;DHT22;43233;48.608;8.838;2024-01-11T00:51:32;-3.50;51.60
32293;DHT22;43233;48.608;8.838;2024-01-11T00:53:57;-3.50;51.60
32293;DHT22;43233;48.608;8.838;2024-01-11T00:56:23;-3.50;51.50
32293;DHT22;43233;48.608;8.838;2024-01-11T00:58:48;-3.60;51.80
32293;DHT22;43233;48.608;8.838;2024-01-11T01:01:14;-3.60;51.80
32293;DHT22;43233;48.608;8.838;2024-01-11T01:03:40;-3.60;52.00
32293;DHT22;43233;48.608;8.838;2024-01-11T01:06:06;-3.60;52.20
32293;DHT22;43233;48.608;8.838;2024-01-11T01:08:31;-3.60;52.10
32293;DHT22;43233;48.608;8.838;2024-01-11T01:10:57;-3.60;52.10
32293;DHT22;43233;48.608;8.838;2024-01-11T01:13:23;-3.70;52.40
32293;DHT22;43233;48.608;8.838;2024-01-11T01:15:48;-3.70;52.60
32293;DHT22;43233;48.608;8.838;2024-01-11T01:18:14;-3.70;52.50
32293;DHT22;43233;48.608;8.838;2024-01-11T01:20:40;-3.70;52.50
32293;DHT22;43233;48.608;8.838;2024-01-11T01:23:06;-3.70;52.70
32293;DHT22;43233;48.608;8.838;2024-01-11T01:25:31;-3.80;52.70
32293;DHT22;43233;48.608;8.838;2024-01-11T01:27:58;-3.80;52.90
32293;DHT22;43233;48.608;8.838;2024-01-11T01:30:24;-3.80;53.20
32293;DHT22;43233;48.608;8.838;2024-01-11T01:32:50;-3.70;53.20
32293;DHT22;43233;48.608;8.838;2024-01-11T01:35:16;-3.80;53.30
32293;DHT22;43233;48.608;8.838;2024-01-11T01:37:41;-3.80;53.30
32293;DHT22;43233;48.608;8.838;2024-01-11T01:40:08;-3.80;53.10
32293;DHT22;43233;48.608;8.838;2024-01-11T01:42:34;-3.80;53.20
32293;DHT22;43233;48.608;8.838;2024-01-11T01:45:00;-3.80;53.30
32293;DHT22;43233;48.608;8.838;2024-01-11T01:47:29;-3.80;53.20
32293;DHT22;43233;48.608;8.838;2024-01-11T01:49:55;-3.80;53.40
32293;DHT22;43233;48.608;8.838;2024-01-11T01:52:22;-3.80;53.20
32293;DHT22;43233;48.608;8.838;2024-01-11T01:54:48;-3.80;53.30
32293;DHT22;43233;48.608;8.838;2024-01-11T01:57:16;-3.80;53.40
32293;DHT22;43233;48.608;8.838;2024-01-11T01:59:42;-3.80;53.60
32293;DHT22;43233;48.608;8.838;2024-01-11T02:02:09;-3.80;53.70
32293;DHT22;43233;48.608;8.838;2024-01-11T02:04:36;-3.80;53.90
32293;DHT22;43233;48.608;8.838;2024-01-11T02:07:02;-3.80;53.90
32293;DHT22;43233;48.608;8.838;2024-01-11T02:09:28;-3.70;54.10
32293;DHT22;43233;48.608;8.838;2024-01-11T02:11:55;-3.70;53.80
32293;DHT22;43233;48.608;8.838;2024-01-11T02:14:21;-3.80;53.50
32293;DHT22;43233;48.608;8.838;2024-01-11T02:16:47;-3.80;53.60
32293;DHT22;43233;48.608;8.838;2024-01-11T02:19:17;-3.80;53.50
32293;DHT22;43233;48.608;8.838;2024-01-11T02:21:44;-3.80;53.30
32293;DHT22;43233;48.608;8.838;2024-01-11T02:24:11;-3.90;53.30
32293;DHT22;43233;48.608;8.838;2024-01-11T02:26:37;-3.90;53.50
32293;DHT22;43233;48.608;8.838;2024-01-11T02:29:23;-3.90;53.60
32293;DHT22;43233;48.608;8.838;2024-01-11T02:31:48;-3.90;53.80
32293;DHT22;43233;48.608;8.838;2024-01-11T02:34:14;-3.90;53.90
32293;DHT22;43233;48.608;8.838;2024-01-11T02:36:40;-3.90;54.00
32293;DHT22;43233;48.608;8.838;2024-01-11T02:39:05;-3.90;54.10
32293;DHT22;43233;48.608;8.838;2024-01-11T02:41:32;-3.90;54.20
32293;DHT22;43233;48.608;8.838;2024-01-11T02:43:59;-3.90;54.10
32293;DHT22;43233;48.608;8.838;2024-01-11T02:46:25;-3.90;54.10
32293;DHT22;43233;48.608;8.838;2024-01-11T02:48:51;-4.00;53.80
32293;DHT22;43233;48.608;8.838;2024-01-11T02:51:17;-4.00;54.10
32293;DHT22;43233;48.608;8.838;2024-01-11T02:53:43;-4.00;54.40
32293;DHT22;43233;48.608;8.838;2024-01-11T02:56:09;-4.00;54.60
32293;DHT22;43233;48.608;8.838;2024-01-11T02:58:34;-4.00;54.70
32293;DHT22;43233;48.608;8.838;2024-01-11T03:01:00;-4.00;55.60
32293;DHT22;43233;48.608;8.838;2024-01-11T03:03:25;-4.00;55.00
32293;DHT22;43233;48.608;8.838;2024-01-11T03:05:51;-4.00;55.20
32293;DHT22;43233;48.608;8.838;2024-01-11T03:08:17;-4.00;55.10
32293;DHT22;43233;48.608;8.838;2024-01-11T03:10:42;-4.00;54.90
32293;DHT22;43233;48.608;8.838;2024-01-11T03:13:08;-4.00;54.80
32293;DHT22;43233;48.608;8.838;2024-01-11T03:15:34;-4.00;54.70
32293;DHT22;43233;48.608;8.838;2024-01-11T03:17:59;-4.00;54.40
32293;DHT22;43233;48.608;8.838;2024-01-11T03:20:25;-4.00;54.40
32293;DHT22;43233;48.608;8.838;2024-01-11T03:22:51;-4.00;54.40
32293;DHT22;43233;48.608;8.838;2024-01-11T03:25:18;-4.10;54.60
32293;DHT22;43233;48.608;8.838;2024-01-11T03:27:44;-4.10;54.60
32293;DHT22;43233;48.608;8.838;2024-01-11T03:30:10;-4.10;54.50
32293;DHT22;43233;48.608;8.838;2024-01-11T03:32:35;-4.20;54.30
32293;DHT22;43233;48.608;8.838;2024-01-11T03:35:01;-4.20;54.50
32293;DHT22;43233;48.608;8.838;2024-01-11T03:37:27;-4.20;54.60
32293;DHT22;43233;48.608;8.838;2024-01-11T03:39:53;-4.20;54.60
32293;DHT22;43233;48.608;8.838;2024-01-11T03:42:18;-4.20;54.60
32293;DHT22;43233;48.608;8.838;2024-01-11T03:44:44;-4.20;54.40
32293;DHT22;43233;48.608;8.838;2024-01-11T03:47:09;-4.30;54.30
32293;DHT22;43233;48.608;8.838;2024-01-11T03:49:35;-4.30;54.00
32293;DHT22;43233;48.608;8.838;2024-01-11T03:52:00;-4.40;54.00
32293;DHT22;43233;48.608;8.838;2024-01-11T03:54:26;-4.40;54.20
32293;DHT22;43233;48.608;8.838;2024-01-11T03:56:52;-4.50;54.60
32293;DHT22;43233;48.608;8.838;2024-01-11T03:59:17;-4.50;54.80
32293;DHT22;43233;48.608;8.838;2024-01-11T04:01:43;-4.50;55.10
32293;DHT22;43233;48.608;8.838;2024-01-11T04:04:09;-4.50;55.30
32293;DHT22;43233;48.608;8.838;2024-01-11T04:06:35;-4.50;55.30
32293;DHT22;43233;48.608;8.838;2024-01-11T04:09:01;-4.50;55.50
32293;DHT22;43233;48.608;8.838;2024-01-11T04:11:30;-4.50;55.60
32293;DHT22;43233;48.608;8.838;2024-01-11T04:13:56;-4.50;55.60
32293;DHT22;43233;48.608;8.838;2024-01-11T04:16:21;-4.40;55.60
32293;DHT22;43233;48.608;8.838;2024-01-11T04:18:47;-4.40;55.60
32293;DHT22;43233;48.608;8.838;2024-01-11T04:21:26;-4.40;55.70
32293;DHT22;43233;48.608;8.838;2024-01-11T04:23:55;-4.40;55.60
32293;DHT22;43233;48.608;8.838;2024-01-11T04:26:21;-4.40;55.70
32293;DHT22;43233;48.608;8.838;2024-01-11T04:28:47;-4.50;55.80
32293;DHT22;43233;48.608;8.838;2024-01-11T04:31:14;-4.50;55.70
32293;DHT22;43233;48.608;8.838;2024-01-11T04:33:41;-4.50;55.90
32293;DHT22;43233;48.608;8.838;2024-01-11T04:36:08;-4.50;56.10
32293;DHT22;43233;48.608;8.838;2024-01-11T04:38:33;-4.50;56.30
32293;DHT22;43233;48.608;8.838;2024-01-11T04:40:59;-4.50;56.40
32293;DHT22;43233;48.608;8.838;2024-01-11T04:43:25;-4.50;56.50
32293;DHT22;43233;48.608;8.838;2024-01-11T04:45:51;-4.60;56.50
32293;DHT22;43233;48.608;8.838;2024-01-11T04:48:17;-4.50;56.60
32293;DHT22;43233;48.608;8.838;2024-01-11T04:50:44;-4.60;56.70
32293;DHT22;43233;48.608;8.838;2024-01-11T04:53:09;-4.50;57.00
32293;DHT22;43233;48.608;8.838;2024-01-11T04:55:35;-4.50;57.20
32293;DHT22;43233;48.608;8.838;2024-01-11T04:58:01;-4.50;57.30
32293;DHT22;43233;48.608;8.838;2024-01-11T05:00:26;-4.50;57.60
32293;DHT22;43233;48.608;8.838;2024-01-11T05:02:52;-4.50;57.70
32293;DHT22;43233;48.608;8.838;2024-01-11T05:05:17;-4.50;57.90
32293;DHT22;43233;48.608;8.838;2024-01-11T05:07:43;-4.40;58.00
32293;DHT22;43233;48.608;8.838;2024-01-11T05:10:09;-4.40;57.60
32293;DHT22;43233;48.608;8.838;2024-01-11T05:12:35;-4.40;57.40
32293;DHT22;43233;48.608;8.838;2024-01-11T05:15:02;-4.40;57.20
32293;DHT22;43233;48.608;8.838;2024-01-11T05:17:28;-4.40;56.80
32293;DHT22;43233;48.608;8.838;2024-01-11T05:19:54;-4.40;56.50
32293;DHT22;43233;48.608;8.838;2024-01-11T05:22:19;-4.40;56.70
32293;DHT22;43233;48.608;8.838;2024-01-11T05:24:45;-4.40;56.70
32293;DHT22;43233;48.608;8.838;2024-01-11T05:27:11;-4.40;56.60
32293;DHT22;43233;48.608;8.838;2024-01-11T05:29:36;-4.40;56.60
32293;DHT22;43233;48.608;8.838;2024-01-11T05:32:02;-4.40;56.80
32293;DHT22;43233;48.608;8.838;2024-01-11T05:34:28;-4.50;56.90
32293;DHT22;43233;48.608;8.838;2024-01-11T05:36:53;-4.40;57.20
32293;DHT22;43233;48.608;8.838;2024-01-11T05:39:19;-4.50;57.30
32293;DHT22;43233;48.608;8.838;2024-01-11T05:41:44;-4.50;57.40
32293;DHT22;43233;48.608;8.838;2024-01-11T05:44:10;-4.40;57.50
32293;DHT22;43233;48.608;8.838;2024-01-11T05:46:36;-4.50;57.30
32293;DHT22;43233;48.608;8.838;2024-01-11T05:49:02;-4.50;57.30
32293;DHT22;43233;48.608;8.838;2024-01-11T05:51:27;-4.50;57.20
32293;DHT22;43233;48.608;8.838;2024-01-11T05:53:53;-4.50;57.40
32293;DHT22;43233;48.608;8.838;2024-01-11T05:56:19;-4.50;57.50
32293;DHT22;43233;48.608;8.838;2024-01-11T05:58:46;-4.50;57.50
32293;DHT22;43233;48.608;8.838;2024-01-11T06:01:11;-4.40;57.60
32293;DHT22;43233;48.608;8.838;2024-01-11T06:03:37;-4.40;57.70
32293;DHT22;43233;48.608;8.838;2024-01-11T06:06:04;-4.40;58.40
32293;DHT22;43233;48.608;8.838;2024-01-11T06:08:30;-4.50;57.60
32293;DHT22;43233;48.608;8.838;2024-01-11T06:10:59;-4.50;57.50
32293;DHT22;43233;48.608;8.838;2024-01-11T06:13:25;-4.50;57.60
32293;DHT22;43233;48.608;8.838;2024-01-11T06:15:51;-4.50;57.60
32293;DHT22;43233;48.608;8.838;2024-01-11T06:18:17;-4.50;57.60
32293;DHT22;43233;48.608;8.838;2024-01-11T06:20:42;-4.50;57.60
32293;DHT22;43233;48.608;8.838;2024-01-11T06:23:08;-4.60;57.40
32293;DHT22;43233;48.608;8.838;2024-01-11T06:25:33;-4.50;57.80
32293;DHT22;43233;48.608;8.838;2024-01-11T06:27:59;-4.60;58.50
32293;DHT22;43233;48.608;8.838;2024-01-11T06:30:25;-4.50;57.70
32293;DHT22;43233;48.608;8.838;2024-01-11T06:32:50;-4.50;57.70
32293;DHT22;43233;48.608;8.838;2024-01-11T06:35:16;-4.50;57.70
32293;DHT22;43233;48.608;8.838;2024-01-11T06:37:42;-4.60;57.40
32293;DHT22;43233;48.608;8.838;2024-01-11T06:40:08;-4.60;57.30
32293;DHT22;43233;48.608;8.838;2024-01-11T06:42:34;-4.60;57.20
32293;DHT22;43233;48.608;8.838;2024-01-11T06:45:00;-4.70;57.40
32293;DHT22;43233;48.608;8.838;2024-01-11T06:47:26;-4.60;57.70
32293;DHT22;43233;48.608;8.838;2024-01-11T06:49:52;-4.60;57.40
32293;DHT22;43233;48.608;8.838;2024-01-11T06:52:18;-4.60;57.00
32293;DHT22;43233;48.608;8.838;2024-01-11T06:54:45;-4.60;56.80
32293;DHT22;43233;48.608;8.838;2024-01-11T06:57:10;-4.60;56.50
32293;DHT22;43233;48.608;8.838;2024-01-11T06:59:36;-4.70;56.50
32293;DHT22;43233;48.608;8.838;2024-01-11T07:02:01;-4.70;56.40
32293;DHT22;43233;48.608;8.838;2024-01-11T07:04:28;-4.70;56.40
32293;DHT22;43233;48.608;8.838;2024-01-11T07:06:53;-4.70;56.10
32293;DHT22;43233;48.608;8.838;2024-01-11T07:09:19;-4.70;56.10
32293;DHT22;43233;48.608;8.838;2024-01-11T07:11:45;-4.80;56.10
32293;DHT22;43233;48.608;8.838;2024-01-11T07:14:11;-4.80;56.30
32293;DHT22;43233;48.608;8.838;2024-01-11T07:16:37;-4.70;56.20
32293;DHT22;43233;48.608;8.838;2024-01-11T07:19:03;-4.80;55.90
32293;DHT22;43233;48.608;8.838;2024-01-11T07:21:28;-4.80;56.10
32293;DHT22;43233;48.608;8.838;2024-01-11T07:23:59;-4.80;56.10
32293;DHT22;43233;48.608;8.838;2024-01-11T07:26:26;-4.80;56.40
32293;DHT22;43233;48.608;8.838;2024-01-11T07:28:52;-4.80;56.70
32293;DHT22;43233;48.608;8.838;2024-01-11T07:31:20;-4.70;57.30
32293;DHT22;43233;48.608;8.838;2024-01-11T07:33:46;-4.70;57.50
32293;DHT22;43233;48.608;8.838;2024-01-11T07:36:11;-4.60;57.60
32293;DHT22;43233;48.608;8.838;2024-01-11T07:38:37;-4.50;57.80
32293;DHT22;43233;48.608;8.838;2024-01-11T07:41:03;-4.40;58.00
32293;DHT22;43233;48.608;8.838;2024-01-11T07:43:29;-4.30;58.10
32293;DHT22;43233;48.608;8.838;2024-01-11T07:45:55;-4.10;58.10
32293;DHT22;43233;48.608;8.838;2024-01-11T07:48:23;-3.90;58.20
32293;DHT22;43233;48.608;8.838;2024-01-11T07:50:49;-3.70;58.40
32293;DHT22;43233;48.608;8.838;2024-01-11T07:53:15;-3.40;57.90
32293;DHT22;43233;48.608;8.838;2024-01-11T07:55:41;-3.10;56.80
32293;DHT22;43233;48.608;8.838;2024-01-11T07:58:07;-2.80;55.70
32293;DHT22;43233;48.608;8.838;2024-01-11T08:00:33;-2.60;55.10
32293;DHT22;43233;48.608;8.838;2024-01-11T08:02:59;-2.40;54.80
32293;DHT22;43233;48.608;8.838;2024-01-11T08:05:25;-2.20;53.90
32293;DHT22;43233;48.608;8.838;2024-01-11T08:07:51;-1.90;53.50
32293;DHT22;43233;48.608;8.838;2024-01-11T08:10:16;-1.60;53.50
32293;DHT22;43233;48.608;8.838;2024-01-11T08:12:42;-1.40;52.30
32293;DHT22;43233;48.608;8.838;2024-01-11T08:15:08;-1.10;51.20
32293;DHT22;43233;48.608;8.838;2024-01-11T08:17:44;-0.90;51.10
32293;DHT22;43233;48.608;8.838;2024-01-11T08:20:10;-0.60;50.30
32293;DHT22;43233;48.608;8.838;2024-01-11T08:22:39;-0.30;48.80
32293;DHT22;43233;48.608;8.838;2024-01-11T08:25:05;-0.10;47.70
32293;DHT22;43233;48.608;8.838;2024-01-11T08:27:33;0.20;47.00
32293;DHT22;43233;48.608;8.838;2024-01-11T08:29:59;0.30;46.00
32293;DHT22;43233;48.608;8.838;2024-01-11T08:32:28;0.50;45.50
32293;DHT22;43233;48.608;8.838;2024-01-11T08:34:56;0.70;45.10
32293;DHT22;43233;48.608;8.838;2024-01-11T08:37:22;0.90;44.20
32293;DHT22;43233;48.608;8.838;2024-01-11T08:39:48;1.00;43.60
32293;DHT22;43233;48.608;8.838;2024-01-11T08:42:14;1.10;43.00
32293;DHT22;43233;48.608;8.838;2024-01-11T08:44:43;1.20;43.00
32293;DHT22;43233;48.608;8.838;2024-01-11T08:47:10;1.10;42.40
32293;DHT22;43233;48.608;8.838;2024-01-11T08:49:39;1.10;42.60
32293;DHT22;43233;48.608;8.838;2024-01-11T08:52:05;1.00;42.50
32293;DHT22;43233;48.608;8.838;2024-01-11T08:54:31;0.80;42.90
32293;DHT22;43233;48.608;8.838;2024-01-11T08:56:58;0.70;43.40
32293;DHT22;43233;48.608;8.838;2024-01-11T08:59:24;0.60;44.00
32293;DHT22;43233;48.608;8.838;2024-01-11T09:01:51;0.50;44.40
32293;DHT22;43233;48.608;8.838;2024-01-11T09:04:17;0.30;44.80
32293;DHT22;43233;48.608;8.838;2024-01-11T09:06:43;0.20;45.30
32293;DHT22;43233;48.608;8.838;2024-01-11T09:09:09;0.20;45.80
32293;DHT22;43233;48.608;8.838;2024-01-11T09:11:35;0.20;45.80
32293;DHT22;43233;48.608;8.838;2024-01-11T09:14:01;0.40;46.20
32293;DHT22;43233;48.608;8.838;2024-01-11T09:16:28;0.60;45.50
32293;DHT22;43233;48.608;8.838;2024-01-11T09:18:54;0.90;44.50
32293;DHT22;43233;48.608;8.838;2024-01-11T09:21:20;1.30;44.20
32293;DHT22;43233;48.608;8.838;2024-01-11T09:23:45;1.60;42.50
32293;DHT22;43233;48.608;8.838;2024-01-11T09:26:12;2.00;41.50
32293;DHT22;43233;48.608;8.838;2024-01-11T09:28:37;2.20;40.60
32293;DHT22;43233;48.608;8.838;2024-01-11T09:31:03;2.50;38.50
32293;DHT22;43233;48.608;8.838;2024-01-11T09:33:29;2.80;37.90
32293;DHT22;43233;48.608;8.838;2024-01-11T09:35:55;3.10;36.70
32293;DHT22;43233;48.608;8.838;2024-01-11T09:38:22;3.50;35.90
32293;DHT22;43233;48.608;8.838;2024-01-11T09:41:26;3.70;35.00
32293;DHT22;43233;48.608;8.838;2024-01-11T09:43:45;4.00;34.30
32293;DHT22;43233;48.608;8.838;2024-01-11T09:46:13;4.30;33.50
32293;DHT22;43233;48.608;8.838;2024-01-11T09:48:40;4.50;32.30
32293;DHT22;43233;48.608;8.838;2024-01-11T09:51:10;4.70;31.60
32293;DHT22;43233;48.608;8.838;2024-01-11T09:53:40;5.00;30.60
32293;DHT22;43233;48.608;8.838;2024-01-11T09:56:10;5.20;31.30
32293;DHT22;43233;48.608;8.838;2024-01-11T09:58:36;5.40;29.60
32293;DHT22;43233;48.608;8.838;2024-01-11T10:01:02;5.50;28.70
32293;DHT22;43233;48.608;8.838;2024-01-11T10:03:28;5.70;28.40
32293;DHT22;43233;48.608;8.838;2024-01-11T10:05:58;5.70;27.70
32293;DHT22;43233;48.608;8.838;2024-01-11T10:08:25;5.90;27.20
32293;DHT22;43233;48.608;8.838;2024-01-11T10:10:51;6.10;27.10
32293;DHT22;43233;48.608;8.838;2024-01-11T10:13:17;6.40;26.90
32293;DHT22;43233;48.608;8.838;2024-01-11T10:15:43;6.50;26.40
32293;DHT22;43233;48.608;8.838;2024-01-11T10:18:09;6.60;25.80
32293;DHT22;43233;48.608;8.838;2024-01-11T10:20:35;6.70;25.60
32293;DHT22;43233;48.608;8.838;2024-01-11T10:23:02;6.90;25.60
32293;DHT22;43233;48.608;8.838;2024-01-11T10:25:28;7.20;25.70
32293;DHT22;43233;48.608;8.838;2024-01-11T10:27:54;7.50;25.60
32293;DHT22;43233;48.608;8.838;2024-01-11T10:30:20;7.80;24.90
32293;DHT22;43233;48.608;8.838;2024-01-11T10:32:48;8.10;24.30
32293;DHT22;43233;48.608;8.838;2024-01-11T10:35:13;8.40;22.90
32293;DHT22;43233;48.608;8.838;2024-01-11T10:37:39;8.90;22.40
32293;DHT22;43233;48.608;8.838;2024-01-11T10:40:07;9.50;20.80
32293;DHT22;43233;48.608;8.838;2024-01-11T10:42:51;9.90;20.50
32293;DHT22;43233;48.608;8.838;2024-01-11T10:45:18;10.10;18.90
32293;DHT22;43233;48.608;8.838;2024-01-11T10:47:54;10.40;19.40
32293;DHT22;43233;48.608;8.838;2024-01-11T10:50:23;10.60;19.00
32293;DHT22;43233;48.608;8.838;2024-01-11T10:55:57;10.80;18.30
32293;DHT22;43233;48.608;8.838;2024-01-11T10:58:25;10.80;18.70
32293;DHT22;43233;48.608;8.838;2024-01-11T11:00:53;10.90;18.10
32293;DHT22;43233;48.608;8.838;2024-01-11T11:03:26;10.70;18.10
32293;DHT22;43233;48.608;8.838;2024-01-11T11:05:54;10.40;19.00
32293;DHT22;43233;48.608;8.838;2024-01-11T11:08:23;10.50;18.90
32293;DHT22;43233;48.608;8.838;2024-01-11T11:10:53;10.50;19.30
32293;DHT22;43233;48.608;8.838;2024-01-11T11:13:21;10.70;19.60
32293;DHT22;43233;48.608;8.838;2024-01-11T11:15:47;11.00;19.20
32293;DHT22;43233;48.608;8.838;2024-01-11T11:18:14;11.20;18.60
32293;DHT22;43233;48.608;8.838;2024-01-11T11:20:40;11.50;18.50
32293;DHT22;43233;48.608;8.838;2024-01-11T11:23:10;11.70;18.20
32293;DHT22;43233;48.608;8.838;2024-01-11T11:25:36;11.80;17.90
32293;DHT22;43233;48.608;8.838;2024-01-11T11:28:03;12.00;17.70
32293;DHT22;43233;48.608;8.838;2024-01-11T11:30:37;12.00;17.60
32293;DHT22;43233;48.608;8.838;2024-01-11T11:33:19;12.10;17.50
32293;DHT22;43233;48.608;8.838;2024-01-11T11:35:51;12.10;17.70
32293;DHT22;43233;48.608;8.838;2024-01-11T11:38:22;12.30;17.20
32293;DHT22;43233;48.608;8.838;2024-01-11T11:40:49;12.50;16.90
32293;DHT22;43233;48.608;8.838;2024-01-11T11:43:17;12.80;16.60
32293;DHT22;43233;48.608;8.838;2024-01-11T11:45:45;13.20;16.30
32293;DHT22;43233;48.608;8.838;2024-01-11T11:51:22;14.00;15.00
32293;DHT22;43233;48.608;8.838;2024-01-11T11:53:49;14.70;14.60
32293;DHT22;43233;48.608;8.838;2024-01-11T11:56:17;15.20;13.80
32293;DHT22;43233;48.608;8.838;2024-01-11T11:58:45;15.30;13.50
32293;DHT22;43233;48.608;8.838;2024-01-11T12:01:11;15.60;13.70
32293;DHT22;43233;48.608;8.838;2024-01-11T12:03:38;15.80;12.80
32293;DHT22;43233;48.608;8.838;2024-01-11T12:06:08;16.00;11.90
32293;DHT22;43233;48.608;8.838;2024-01-11T12:08:34;15.80;12.60
32293;DHT22;43233;48.608;8.838;2024-01-11T12:11:05;15.70;12.80
32293;DHT22;43233;48.608;8.838;2024-01-11T12:13:31;15.70;13.10
32293;DHT22;43233;48.608;8.838;2024-01-11T12:15:57;15.60;12.90
32293;DHT22;43233;48.608;8.838;2024-01-11T12:18:23;15.90;13.10
32293;DHT22;43233;48.608;8.838;2024-01-11T12:20:51;16.00;12.40
32293;DHT22;43233;48.608;8.838;2024-01-11T12:23:18;16.20;12.30
32293;DHT22;43233;48.608;8.838;2024-01-11T12:25:44;16.40;12.40
32293;DHT22;43233;48.608;8.838;2024-01-11T12:28:10;16.70;12.60
32293;DHT22;43233;48.608;8.838;2024-01-11T12:30:36;16.90;12.60
32293;DHT22;43233;48.608;8.838;2024-01-11T12:33:02;17.10;12.40
32293;DHT22;43233;48.608;8.838;2024-01-11T12:35:28;17.20;12.50
32293;DHT22;43233;48.608;8.838;2024-01-11T12:38:07;17.40;12.40
32293;DHT22;43233;48.608;8.838;2024-01-11T12:40:34;17.50;12.40
32293;DHT22;43233;48.608;8.838;2024-01-11T12:43:06;17.70;12.30
32293;DHT22;43233;48.608;8.838;2024-01-11T12:45:34;17.90;11.90
32293;DHT22;43233;48.608;8.838;2024-01-11T12:48:00;18.00;12.10
32293;DHT22;43233;48.608;8.838;2024-01-11T12:50:29;18.10;12.20
32293;DHT22;43233;48.608;8.838;2024-01-11T12:53:12;18.20;12.10
32293;DHT22;43233;48.608;8.838;2024-01-11T12:55:47;18.20;11.60
32293;DHT22;43233;48.608;8.838;2024-01-11T12:58:13;18.30;11.30
32293;DHT22;43233;48.608;8.838;2024-01-11T13:00:44;18.40;11.40
32293;DHT22;43233;48.608;8.838;2024-01-11T13:03:10;18.40;11.10
32293;DHT22;43233;48.608;8.838;2024-01-11T13:05:36;18.50;11.30
32293;DHT22;43233;48.608;8.838;2024-01-11T13:08:02;18.50;11.10
32293;DHT22;43233;48.608;8.838;2024-01-11T13:10:29;18.30;11.10
32293;DHT22;43233;48.608;8.838;2024-01-11T13:12:56;18.30;11.20
32293;DHT22;43233;48.608;8.838;2024-01-11T13:15:22;18.30;11.00
32293;DHT22;43233;48.608;8.838;2024-01-11T13:17:48;18.20;11.10
32293;DHT22;43233;48.608;8.838;2024-01-11T13:20:14;18.10;10.80
32293;DHT22;43233;48.608;8.838;2024-01-11T13:22:40;17.80;10.80
32293;DHT22;43233;48.608;8.838;2024-01-11T13:25:06;17.70;11.10
32293;DHT22;43233;48.608;8.838;2024-01-11T13:27:32;17.50;11.20
32293;DHT22;43233;48.608;8.838;2024-01-11T13:29:57;17.30;11.00
32293;DHT22;43233;48.608;8.838;2024-01-11T13:32:23;17.00;11.10
32293;DHT22;43233;48.608;8.838;2024-01-11T13:34:49;16.60;10.90
32293;DHT22;43233;48.608;8.838;2024-01-11T13:37:18;15.60;11.60
32293;DHT22;43233;48.608;8.838;2024-01-11T13:39:44;14.40;13.00
32293;DHT22;43233;48.608;8.838;2024-01-11T13:42:10;13.50;14.20
32293;DHT22;43233;48.608;8.838;2024-01-11T13:44:36;13.00;14.90
32293;DHT22;43233;48.608;8.838;2024-01-11T13:47:02;12.50;15.20
32293;DHT22;43233;48.608;8.838;2024-01-11T13:49:28;11.80;15.70
32293;DHT22;43233;48.608;8.838;2024-01-11T13:51:54;10.90;17.00
32293;DHT22;43233;48.608;8.838;2024-01-11T13:54:19;10.10;18.20
32293;DHT22;43233;48.608;8.838;2024-01-11T13:56:47;9.40;19.10
32293;DHT22;43233;48.608;8.838;2024-01-11T13:59:13;8.80;19.90
32293;DHT22;43233;48.608;8.838;2024-01-11T14:01:40;8.30;20.90
32293;DHT22;43233;48.608;8.838;2024-01-11T14:04:06;7.80;21.50
32293;DHT22;43233;48.608;8.838;2024-01-11T14:06:31;7.50;22.10
32293;DHT22;43233;48.608;8.838;2024-01-11T14:08:57;7.30;22.60
32293;DHT22;43233;48.608;8.838;2024-01-11T14:11:23;7.00;23.10
32293;DHT22;43233;48.608;8.838;2024-01-11T14:13:48;6.80;23.40
32293;DHT22;43233;48.608;8.838;2024-01-11T14:16:14;6.50;23.50
32293;DHT22;43233;48.608;8.838;2024-01-11T14:18:41;6.20;24.40
32293;DHT22;43233;48.608;8.838;2024-01-11T14:21:07;5.90;25.00
32293;DHT22;43233;48.608;8.838;2024-01-11T14:23:32;5.60;25.90
32293;DHT22;43233;48.608;8.838;2024-01-11T14:25:58;5.40;26.50
32293;DHT22;43233;48.608;8.838;2024-01-11T14:28:24;5.20;26.70
32293;DHT22;43233;48.608;8.838;2024-01-11T14:30:49;5.00;27.10
32293;DHT22;43233;48.608;8.838;2024-01-11T14:33:15;4.90;27.40
32293;DHT22;43233;48.608;8.838;2024-01-11T14:35:41;4.80;27.80
32293;DHT22;43233;48.608;8.838;2024-01-11T14:38:06;4.70;28.00
32293;DHT22;43233;48.608;8.838;2024-01-11T14:40:32;4.70;28.50
32293;DHT22;43233;48.608;8.838;2024-01-11T14:42:58;4.60;28.70
32293;DHT22;43233;48.608;8.838;2024-01-11T14:45:23;4.50;29.70
32293;DHT22;43233;48.608;8.838;2024-01-11T14:47:49;4.50;29.40
32293;DHT22;43233;48.608;8.838;2024-01-11T14:50:14;4.40;29.30
32293;DHT22;43233;48.608;8.838;2024-01-11T14:52:40;4.30;29.60
32293;DHT22;43233;48.608;8.838;2024-01-11T14:55:06;4.30;29.80
32293;DHT22;43233;48.608;8.838;2024-01-11T14:57:32;4.20;30.00
32293;DHT22;43233;48.608;8.838;2024-01-11T14:59:58;4.10;30.20
32293;DHT22;43233;48.608;8.838;2024-01-11T15:02:24;4.00;30.70
32293;DHT22;43233;48.608;8.838;2024-01-11T15:04:49;3.90;30.90
32293;DHT22;43233;48.608;8.838;2024-01-11T15:07:15;3.90;31.20
32293;DHT22;43233;48.608;8.838;2024-01-11T15:09:41;3.80;31.20
32293;DHT22;43233;48.608;8.838;2024-01-11T15:12:06;3.70;31.30
32293;DHT22;43233;48.608;8.838;2024-01-11T15:14:32;3.60;31.50
32293;DHT22;43233;48.608;8.838;2024-01-11T15:16:58;3.50;31.80
32293;DHT22;43233;48.608;8.838;2024-01-11T15:19:23;3.40;32.20
32293;DHT22;43233;48.608;8.838;2024-01-11T15:21:49;3.40;32.50
32293;DHT22;43233;48.608;8.838;2024-01-11T15:24:16;3.20;32.40
32293;DHT22;43233;48.608;8.838;2024-01-11T15:26:44;3.10;32.40
32293;DHT22;43233;48.608;8.838;2024-01-11T15:29:10;3.00;32.80
32293;DHT22;43233;48.608;8.838;2024-01-11T15:31:36;2.90;33.20
32293;DHT22;43233;48.608;8.838;2024-01-11T15:34:04;2.80;33.60
32293;DHT22;43233;48.608;8.838;2024-01-11T15:36:29;2.70;33.90